sensor_id;sensor_type;location;lat;lon;timestamp;pressure;altitude;pressure_sealevel;temperature
21336;BMP180;10826;52.536;13.432;2022-09-24T00:01:29;100913.00;;;19.50
21336;BMP180;10826;52.536;13.432;2022-09-24T00:03:59;100913.00;;;19.50
21336;BMP180;10826;52.536;13.432;2022-09-24T00:06:29;100913.00;;;19.40
21336;BMP180;10826;52.536;13.432;2022-09-24T00:08:57;100919.00;;;19.40
21336;BMP180;10826;52.536;13.432;2022-09-24T00:11:26;100902.00;;;19.30
21336;BMP180;10826;52.536;13.432;2022-09-24T00:13:55;100923.00;;;19.30
21336;BMP180;10826;52.536;13.432;2022-09-24T00:16:25;100917.00;;;19.20
21336;BMP180;10826;52.536;13.432;2022-09-24T00:18:54;100904.00;;;19.20
21336;BMP180;10826;52.536;13.432;2022-09-24T00:21:24;100915.00;;;19.20
21336;BMP180;10826;52.536;13.432;2022-09-24T00:23:53;100904.00;;;19.20
21336;BMP180;10826;52.536;13.432;2022-09-24T00:26:20;100913.00;;;19.10
21336;BMP180;10826;52.536;13.432;2022-09-24T00:29:07;100908.00;;;19.10
21336;BMP180;10826;52.536;13.432;2022-09-24T00:31:33;100902.00;;;19.10
21336;BMP180;10826;52.536;13.432;2022-09-24T00:33:59;100892.00;;;19.10
21336;BMP180;10826;52.536;13.432;2022-09-24T00:36:27;100905.00;;;19.00
21336;BMP180;10826;52.536;13.432;2022-09-24T00:38:57;100900.00;;;19.10
21336;BMP180;10826;52.536;13.432;2022-09-24T00:41:28;100889.00;;;19.00
21336;BMP180;10826;52.536;13.432;2022-09-24T00:43:55;100875.00;;;19.00
21336;BMP180;10826;52.536;13.432;2022-09-24T00:46:41;100888.00;;;19.00
21336;BMP180;10826;52.536;13.432;2022-09-24T00:49:11;100892.00;;;18.90
21336;BMP180;10826;52.536;13.432;2022-09-24T00:51:40;100889.00;;;18.90
21336;BMP180;10826;52.536;13.432;2022-09-24T00:54:14;100878.00;;;18.90
21336;BMP180;10826;52.536;13.432;2022-09-24T00:56:44;100887.00;;;18.90
21336;BMP180;10826;52.536;13.432;2022-09-24T00:59:16;100882.00;;;18.80
21336;BMP180;10826;52.536;13.432;2022-09-24T01:01:47;100890.00;;;18.90
21336;BMP180;10826;52.536;13.432;2022-09-24T01:04:15;100883.00;;;18.80
21336;BMP180;10826;52.536;13.432;2022-09-24T01:06:47;100884.00;;;18.80
21336;BMP180;10826;52.536;13.432;2022-09-24T01:09:15;100876.00;;;18.80
21336;BMP180;10826;52.536;13.432;2022-09-24T01:32:22;100858.00;;;18.70
21336;BMP180;10826;52.536;13.432;2022-09-24T01:35:01;100866.00;;;18.70
21336;BMP180;10826;52.536;13.432;2022-09-24T01:37:31;100858.00;;;18.70
21336;BMP180;10826;52.536;13.432;2022-09-24T01:40:01;100860.00;;;18.70
21336;BMP180;10826;52.536;13.432;2022-09-24T01:42:29;100858.00;;;18.70
21336;BMP180;10826;52.536;13.432;2022-09-24T01:44:58;100848.00;;;18.70
21336;BMP180;10826;52.536;13.432;2022-09-24T01:47:44;100834.00;;;18.80
21336;BMP180;10826;52.536;13.432;2022-09-24T01:50:17;100846.00;;;18.80
21336;BMP180;10826;52.536;13.432;2022-09-24T01:53:07;100820.00;;;18.80
21336;BMP180;10826;52.536;13.432;2022-09-24T01:55:44;100825.00;;;18.80
21336;BMP180;10826;52.536;13.432;2022-09-24T01:58:21;100839.00;;;18.80
21336;BMP180;10826;52.536;13.432;2022-09-24T02:00:55;100837.00;;;18.80
21336;BMP180;10826;52.536;13.432;2022-09-24T02:03:31;100835.00;;;18.80
21336;BMP180;10826;52.536;13.432;2022-09-24T02:06:09;100838.00;;;18.80
21336;BMP180;10826;52.536;13.432;2022-09-24T02:08:40;100833.00;;;18.80
21336;BMP180;10826;52.536;13.432;2022-09-24T02:11:16;100822.00;;;18.80
21336;BMP180;10826;52.536;13.432;2022-09-24T02:16:40;100816.00;;;18.80
21336;BMP180;10826;52.536;13.432;2022-09-24T02:19:19;100813.00;;;18.80
21336;BMP180;10826;52.536;13.432;2022-09-24T02:21:48;100830.00;;;18.80
21336;BMP180;10826;52.536;13.432;2022-09-24T02:24:21;100823.00;;;18.80
21336;BMP180;10826;52.536;13.432;2022-09-24T02:26:49;100822.00;;;18.80
21336;BMP180;10826;52.536;13.432;2022-09-24T02:29:16;100823.00;;;18.70
21336;BMP180;10826;52.536;13.432;2022-09-24T02:31:48;100826.00;;;18.80
21336;BMP180;10826;52.536;13.432;2022-09-24T02:34:32;100820.00;;;18.90
21336;BMP180;10826;52.536;13.432;2022-09-24T02:37:09;100819.00;;;18.90
21336;BMP180;10826;52.536;13.432;2022-09-24T02:39:35;100797.00;;;18.80
21336;BMP180;10826;52.536;13.432;2022-09-24T02:42:03;100828.00;;;18.90
21336;BMP180;10826;52.536;13.432;2022-09-24T02:44:34;100818.00;;;18.90
21336;BMP180;10826;52.536;13.432;2022-09-24T02:47:06;100817.00;;;18.90
21336;BMP180;10826;52.536;13.432;2022-09-24T02:49:32;100798.00;;;18.80
21336;BMP180;10826;52.536;13.432;2022-09-24T02:51:58;100810.00;;;18.80
21336;BMP180;10826;52.536;13.432;2022-09-24T02:54:24;100804.00;;;18.80
21336;BMP180;10826;52.536;13.432;2022-09-24T02:56:51;100809.00;;;18.90
21336;BMP180;10826;52.536;13.432;2022-09-24T02:59:17;100804.00;;;18.80
21336;BMP180;10826;52.536;13.432;2022-09-24T03:01:44;100794.00;;;18.90
21336;BMP180;10826;52.536;13.432;2022-09-24T03:04:11;100793.00;;;18.80
21336;BMP180;10826;52.536;13.432;2022-09-24T03:06:37;100802.00;;;18.80
21336;BMP180;10826;52.536;13.432;2022-09-24T03:09:04;100786.00;;;18.90
21336;BMP180;10826;52.536;13.432;2022-09-24T03:11:30;100796.00;;;18.80
21336;BMP180;10826;52.536;13.432;2022-09-24T03:13:58;100793.00;;;18.80
21336;BMP180;10826;52.536;13.432;2022-09-24T03:16:25;100805.00;;;18.80
21336;BMP180;10826;52.536;13.432;2022-09-24T03:18:51;100808.00;;;18.80
21336;BMP180;10826;52.536;13.432;2022-09-24T03:21:19;100795.00;;;18.80
21336;BMP180;10826;52.536;13.432;2022-09-24T03:23:46;100789.00;;;18.80
21336;BMP180;10826;52.536;13.432;2022-09-24T03:26:13;100780.00;;;18.80
21336;BMP180;10826;52.536;13.432;2022-09-24T03:28:39;100792.00;;;18.80
21336;BMP180;10826;52.536;13.432;2022-09-24T03:31:06;100806.00;;;18.80
21336;BMP180;10826;52.536;13.432;2022-09-24T03:33:40;100811.00;;;18.90
21336;BMP180;10826;52.536;13.432;2022-09-24T03:36:13;100798.00;;;18.90
21336;BMP180;10826;52.536;13.432;2022-09-24T03:38:43;100795.00;;;18.80
21336;BMP180;10826;52.536;13.432;2022-09-24T03:41:12;100797.00;;;18.80
21336;BMP180;10826;52.536;13.432;2022-09-24T03:43:38;100796.00;;;18.80
21336;BMP180;10826;52.536;13.432;2022-09-24T03:46:05;100797.00;;;18.80
21336;BMP180;10826;52.536;13.432;2022-09-24T03:48:34;100782.00;;;18.80
21336;BMP180;10826;52.536;13.432;2022-09-24T03:51:12;100807.00;;;18.80
21336;BMP180;10826;52.536;13.432;2022-09-24T03:53:38;100797.00;;;18.80
21336;BMP180;10826;52.536;13.432;2022-09-24T03:56:06;100801.00;;;18.80
21336;BMP180;10826;52.536;13.432;2022-09-24T03:58:35;100770.00;;;18.80
21336;BMP180;10826;52.536;13.432;2022-09-24T04:01:02;100765.00;;;18.80
21336;BMP180;10826;52.536;13.432;2022-09-24T04:03:28;100791.00;;;18.70
21336;BMP180;10826;52.536;13.432;2022-09-24T04:05:54;100787.00;;;18.80
21336;BMP180;10826;52.536;13.432;2022-09-24T04:08:21;100790.00;;;18.80
21336;BMP180;10826;52.536;13.432;2022-09-24T04:10:49;100782.00;;;18.80
21336;BMP180;10826;52.536;13.432;2022-09-24T04:13:17;100782.00;;;18.80
21336;BMP180;10826;52.536;13.432;2022-09-24T04:15:43;100780.00;;;18.80
21336;BMP180;10826;52.536;13.432;2022-09-24T04:18:10;100763.00;;;18.80
21336;BMP180;10826;52.536;13.432;2022-09-24T04:20:36;100767.00;;;18.80
21336;BMP180;10826;52.536;13.432;2022-09-24T04:23:02;100766.00;;;18.80
21336;BMP180;10826;52.536;13.432;2022-09-24T04:25:31;100773.00;;;18.80
21336;BMP180;10826;52.536;13.432;2022-09-24T04:28:01;100777.00;;;18.80
21336;BMP180;10826;52.536;13.432;2022-09-24T04:30:29;100777.00;;;18.80
21336;BMP180;10826;52.536;13.432;2022-09-24T04:32:55;100775.00;;;18.80
21336;BMP180;10826;52.536;13.432;2022-09-24T04:35:27;100774.00;;;18.80
21336;BMP180;10826;52.536;13.432;2022-09-24T04:37:54;100771.00;;;18.80
21336;BMP180;10826;52.536;13.432;2022-09-24T04:40:21;100759.00;;;18.70
21336;BMP180;10826;52.536;13.432;2022-09-24T04:42:46;100766.00;;;18.80
21336;BMP180;10826;52.536;13.432;2022-09-24T04:45:14;100764.00;;;18.80
21336;BMP180;10826;52.536;13.432;2022-09-24T04:47:49;100773.00;;;18.80
21336;BMP180;10826;52.536;13.432;2022-09-24T04:50:21;100777.00;;;18.80
21336;BMP180;10826;52.536;13.432;2022-09-24T04:52:47;100764.00;;;18.70
21336;BMP180;10826;52.536;13.432;2022-09-24T04:55:13;100775.00;;;18.70
21336;BMP180;10826;52.536;13.432;2022-09-24T04:57:39;100785.00;;;18.70
21336;BMP180;10826;52.536;13.432;2022-09-24T05:00:10;100797.00;;;18.70
21336;BMP180;10826;52.536;13.432;2022-09-24T05:02:39;100777.00;;;18.70
21336;BMP180;10826;52.536;13.432;2022-09-24T05:05:06;100785.00;;;18.70
21336;BMP180;10826;52.536;13.432;2022-09-24T05:07:32;100773.00;;;18.70
21336;BMP180;10826;52.536;13.432;2022-09-24T05:09:58;100787.00;;;18.70
21336;BMP180;10826;52.536;13.432;2022-09-24T05:12:24;100776.00;;;18.60
21336;BMP180;10826;52.536;13.432;2022-09-24T05:14:50;100783.00;;;18.70
21336;BMP180;10826;52.536;13.432;2022-09-24T05:17:16;100778.00;;;18.70
21336;BMP180;10826;52.536;13.432;2022-09-24T05:19:42;100782.00;;;18.70
21336;BMP180;10826;52.536;13.432;2022-09-24T05:22:08;100778.00;;;18.70
21336;BMP180;10826;52.536;13.432;2022-09-24T05:24:34;100778.00;;;18.70
21336;BMP180;10826;52.536;13.432;2022-09-24T05:27:00;100786.00;;;18.70
21336;BMP180;10826;52.536;13.432;2022-09-24T05:29:40;100776.00;;;18.70
21336;BMP180;10826;52.536;13.432;2022-09-24T05:32:20;100782.00;;;18.70
21336;BMP180;10826;52.536;13.432;2022-09-24T05:34:46;100777.00;;;18.70
21336;BMP180;10826;52.536;13.432;2022-09-24T05:37:13;100792.00;;;18.60
21336;BMP180;10826;52.536;13.432;2022-09-24T05:39:40;100782.00;;;18.70
21336;BMP180;10826;52.536;13.432;2022-09-24T05:42:09;100777.00;;;18.70
21336;BMP180;10826;52.536;13.432;2022-09-24T05:44:39;100783.00;;;18.70
21336;BMP180;10826;52.536;13.432;2022-09-24T05:47:05;100783.00;;;18.70
21336;BMP180;10826;52.536;13.432;2022-09-24T05:49:31;100782.00;;;18.70
21336;BMP180;10826;52.536;13.432;2022-09-24T05:51:57;100781.00;;;18.70
21336;BMP180;10826;52.536;13.432;2022-09-24T05:54:23;100791.00;;;18.80
21336;BMP180;10826;52.536;13.432;2022-09-24T05:56:49;100774.00;;;18.80
21336;BMP180;10826;52.536;13.432;2022-09-24T05:59:15;100770.00;;;18.80
21336;BMP180;10826;52.536;13.432;2022-09-24T06:01:41;100786.00;;;18.90
21336;BMP180;10826;52.536;13.432;2022-09-24T06:04:09;100776.00;;;18.90
21336;BMP180;10826;52.536;13.432;2022-09-24T06:06:36;100792.00;;;18.90
21336;BMP180;10826;52.536;13.432;2022-09-24T06:09:02;100786.00;;;18.90
21336;BMP180;10826;52.536;13.432;2022-09-24T06:11:31;100772.00;;;19.00
21336;BMP180;10826;52.536;13.432;2022-09-24T06:14:03;100788.00;;;19.00
21336;BMP180;10826;52.536;13.432;2022-09-24T06:16:32;100789.00;;;19.00
21336;BMP180;10826;52.536;13.432;2022-09-24T06:18:58;100767.00;;;19.00
21336;BMP180;10826;52.536;13.432;2022-09-24T06:21:24;100795.00;;;19.00
21336;BMP180;10826;52.536;13.432;2022-09-24T06:23:50;100793.00;;;19.00
21336;BMP180;10826;52.536;13.432;2022-09-24T06:26:16;100786.00;;;19.10
21336;BMP180;10826;52.536;13.432;2022-09-24T06:28:43;100769.00;;;19.10
21336;BMP180;10826;52.536;13.432;2022-09-24T06:31:09;100807.00;;;19.20
21336;BMP180;10826;52.536;13.432;2022-09-24T06:33:37;100795.00;;;19.20
21336;BMP180;10826;52.536;13.432;2022-09-24T06:36:03;100774.00;;;19.20
21336;BMP180;10826;52.536;13.432;2022-09-24T06:38:30;100793.00;;;19.20
21336;BMP180;10826;52.536;13.432;2022-09-24T06:41:02;100783.00;;;19.30
21336;BMP180;10826;52.536;13.432;2022-09-24T06:43:28;100786.00;;;19.30
21336;BMP180;10826;52.536;13.432;2022-09-24T06:45:56;100796.00;;;19.40
21336;BMP180;10826;52.536;13.432;2022-09-24T06:48:23;100789.00;;;19.40
21336;BMP180;10826;52.536;13.432;2022-09-24T06:50:49;100792.00;;;19.50
21336;BMP180;10826;52.536;13.432;2022-09-24T06:53:17;100797.00;;;19.50
21336;BMP180;10826;52.536;13.432;2022-09-24T06:55:43;100791.00;;;19.60
21336;BMP180;10826;52.536;13.432;2022-09-24T06:58:13;100781.00;;;19.70
21336;BMP180;10826;52.536;13.432;2022-09-24T07:00:40;100789.00;;;19.70
21336;BMP180;10826;52.536;13.432;2022-09-24T07:03:14;100774.00;;;19.80
21336;BMP180;10826;52.536;13.432;2022-09-24T07:05:41;100769.00;;;19.80
21336;BMP180;10826;52.536;13.432;2022-09-24T07:08:10;100781.00;;;19.90
21336;BMP180;10826;52.536;13.432;2022-09-24T07:10:36;100797.00;;;19.90
21336;BMP180;10826;52.536;13.432;2022-09-24T07:13:02;100800.00;;;19.90
21336;BMP180;10826;52.536;13.432;2022-09-24T07:15:28;100789.00;;;20.00
21336;BMP180;10826;52.536;13.432;2022-09-24T07:17:57;100807.00;;;20.00
21336;BMP180;10826;52.536;13.432;2022-09-24T07:20:24;100794.00;;;20.00
21336;BMP180;10826;52.536;13.432;2022-09-24T07:22:53;100806.00;;;20.00
21336;BMP180;10826;52.536;13.432;2022-09-24T07:25:21;100812.00;;;20.00
21336;BMP180;10826;52.536;13.432;2022-09-24T07:27:47;100816.00;;;20.00
21336;BMP180;10826;52.536;13.432;2022-09-24T07:30:13;100824.00;;;20.10
21336;BMP180;10826;52.536;13.432;2022-09-24T07:32:38;100825.00;;;20.10
21336;BMP180;10826;52.536;13.432;2022-09-24T07:35:05;100819.00;;;20.20
21336;BMP180;10826;52.536;13.432;2022-09-24T07:37:32;100820.00;;;20.20
21336;BMP180;10826;52.536;13.432;2022-09-24T07:39:59;100823.00;;;20.30
21336;BMP180;10826;52.536;13.432;2022-09-24T07:42:25;100799.00;;;20.30
21336;BMP180;10826;52.536;13.432;2022-09-24T07:44:53;100803.00;;;20.40
21336;BMP180;10826;52.536;13.432;2022-09-24T07:47:22;100813.00;;;20.50
21336;BMP180;10826;52.536;13.432;2022-09-24T07:49:48;100797.00;;;20.60
21336;BMP180;10826;52.536;13.432;2022-09-24T07:52:14;100802.00;;;20.60
21336;BMP180;10826;52.536;13.432;2022-09-24T07:54:40;100804.00;;;20.70
21336;BMP180;10826;52.536;13.432;2022-09-24T07:57:10;100806.00;;;20.80
21336;BMP180;10826;52.536;13.432;2022-09-24T07:59:40;100817.00;;;20.80
21336;BMP180;10826;52.536;13.432;2022-09-24T08:02:15;100820.00;;;20.80
21336;BMP180;10826;52.536;13.432;2022-09-24T08:04:44;100828.00;;;20.90
21336;BMP180;10826;52.536;13.432;2022-09-24T08:07:12;100824.00;;;20.90
21336;BMP180;10826;52.536;13.432;2022-09-24T08:09:38;100813.00;;;20.90
21336;BMP180;10826;52.536;13.432;2022-09-24T08:12:06;100828.00;;;21.00
21336;BMP180;10826;52.536;13.432;2022-09-24T08:14:32;100820.00;;;21.00
21336;BMP180;10826;52.536;13.432;2022-09-24T08:16:58;100832.00;;;21.00
21336;BMP180;10826;52.536;13.432;2022-09-24T08:19:24;100828.00;;;21.10
21336;BMP180;10826;52.536;13.432;2022-09-24T08:21:50;100827.00;;;21.10
21336;BMP180;10826;52.536;13.432;2022-09-24T08:24:16;100826.00;;;21.10
21336;BMP180;10826;52.536;13.432;2022-09-24T08:26:42;100822.00;;;21.20
21336;BMP180;10826;52.536;13.432;2022-09-24T08:29:08;100825.00;;;21.20
21336;BMP180;10826;52.536;13.432;2022-09-24T08:31:36;100817.00;;;21.20
21336;BMP180;10826;52.536;13.432;2022-09-24T08:34:02;100818.00;;;21.30
21336;BMP180;10826;52.536;13.432;2022-09-24T08:36:27;100821.00;;;21.40
21336;BMP180;10826;52.536;13.432;2022-09-24T08:38:54;100828.00;;;21.40
21336;BMP180;10826;52.536;13.432;2022-09-24T08:41:49;100829.00;;;21.50
21336;BMP180;10826;52.536;13.432;2022-09-24T08:47:50;100824.00;;;21.50
21336;BMP180;10826;52.536;13.432;2022-09-24T08:50:26;100828.00;;;21.50
21336;BMP180;10826;52.536;13.432;2022-09-24T08:53:22;100825.00;;;21.60
21336;BMP180;10826;52.536;13.432;2022-09-24T08:55:57;100812.00;;;21.70
21336;BMP180;10826;52.536;13.432;2022-09-24T09:05:21;100827.00;;;22.00
21336;BMP180;10826;52.536;13.432;2022-09-24T09:08:13;100823.00;;;22.10
21336;BMP180;10826;52.536;13.432;2022-09-24T09:10:42;100830.00;;;22.10
21336;BMP180;10826;52.536;13.432;2022-09-24T09:13:21;100831.00;;;22.20
21336;BMP180;10826;52.536;13.432;2022-09-24T09:19:04;100832.00;;;22.40
21336;BMP180;10826;52.536;13.432;2022-09-24T09:21:43;100835.00;;;22.50
21336;BMP180;10826;52.536;13.432;2022-09-24T09:24:26;100838.00;;;22.60
21336;BMP180;10826;52.536;13.432;2022-09-24T09:26:56;100839.00;;;22.60
21336;BMP180;10826;52.536;13.432;2022-09-24T09:29:25;100831.00;;;22.70
21336;BMP180;10826;52.536;13.432;2022-09-24T09:32:07;100822.00;;;22.80
21336;BMP180;10826;52.536;13.432;2022-09-24T09:35:01;100836.00;;;23.00
21336;BMP180;10826;52.536;13.432;2022-09-24T09:37:43;100819.00;;;22.70
21336;BMP180;10826;52.536;13.432;2022-09-24T09:40:44;100820.00;;;23.20
21336;BMP180;10826;52.536;13.432;2022-09-24T09:43:13;100826.00;;;23.20
21336;BMP180;10826;52.536;13.432;2022-09-24T09:46:05;100822.00;;;23.30
21336;BMP180;10826;52.536;13.432;2022-09-24T09:48:59;100824.00;;;23.40
21336;BMP180;10826;52.536;13.432;2022-09-24T09:51:34;100820.00;;;23.40
21336;BMP180;10826;52.536;13.432;2022-09-24T09:54:03;100828.00;;;23.40
21336;BMP180;10826;52.536;13.432;2022-09-24T09:56:50;100820.00;;;23.50
21336;BMP180;10826;52.536;13.432;2022-09-24T09:59:20;100814.00;;;23.40
21336;BMP180;10826;52.536;13.432;2022-09-24T10:01:52;100826.00;;;23.60
21336;BMP180;10826;52.536;13.432;2022-09-24T10:04:39;100821.00;;;23.70
21336;BMP180;10826;52.536;13.432;2022-09-24T10:07:14;100815.00;;;23.70
21336;BMP180;10826;52.536;13.432;2022-09-24T10:09:42;100810.00;;;23.70
21336;BMP180;10826;52.536;13.432;2022-09-24T10:12:17;100799.00;;;23.70
21336;BMP180;10826;52.536;13.432;2022-09-24T10:15:03;100813.00;;;23.80
21336;BMP180;10826;52.536;13.432;2022-09-24T10:17:39;100819.00;;;23.90
21336;BMP180;10826;52.536;13.432;2022-09-24T10:20:21;100813.00;;;23.90
21336;BMP180;10826;52.536;13.432;2022-09-24T10:22:52;100813.00;;;23.80
21336;BMP180;10826;52.536;13.432;2022-09-24T10:25:27;100801.00;;;23.90
21336;BMP180;10826;52.536;13.432;2022-09-24T10:28:00;100818.00;;;24.00
21336;BMP180;10826;52.536;13.432;2022-09-24T10:30:56;100812.00;;;24.00
21336;BMP180;10826;52.536;13.432;2022-09-24T10:33:24;100808.00;;;23.90
21336;BMP180;10826;52.536;13.432;2022-09-24T10:36:11;100821.00;;;24.00
21336;BMP180;10826;52.536;13.432;2022-09-24T10:38:38;100821.00;;;23.90
21336;BMP180;10826;52.536;13.432;2022-09-24T10:41:29;100825.00;;;24.00
21336;BMP180;10826;52.536;13.432;2022-09-24T10:44:00;100812.00;;;24.00
21336;BMP180;10826;52.536;13.432;2022-09-24T10:52:59;100809.00;;;24.00
21336;BMP180;10826;52.536;13.432;2022-09-24T10:56:40;100826.00;;;24.00
21336;BMP180;10826;52.536;13.432;2022-09-24T10:59:04;100812.00;;;24.10
21336;BMP180;10826;52.536;13.432;2022-09-24T11:02:05;100814.00;;;24.10
21336;BMP180;10826;52.536;13.432;2022-09-24T11:05:10;100817.00;;;24.20
21336;BMP180;10826;52.536;13.432;2022-09-24T11:08:14;100821.00;;;24.30
21336;BMP180;10826;52.536;13.432;2022-09-24T11:16:53;100813.00;;;24.40
21336;BMP180;10826;52.536;13.432;2022-09-24T11:22:12;100828.00;;;24.50
21336;BMP180;10826;52.536;13.432;2022-09-24T11:25:06;100820.00;;;24.60
21336;BMP180;10826;52.536;13.432;2022-09-24T11:30:49;100818.00;;;24.80
21336;BMP180;10826;52.536;13.432;2022-09-24T11:40:02;100811.00;;;25.00
21336;BMP180;10826;52.536;13.432;2022-09-24T11:46:15;100807.00;;;25.10
21336;BMP180;10826;52.536;13.432;2022-09-24T11:54:35;100795.00;;;25.20
21336;BMP180;10826;52.536;13.432;2022-09-24T11:57:15;100819.00;;;25.30
21336;BMP180;10826;52.536;13.432;2022-09-24T12:00:02;100802.00;;;25.30
21336;BMP180;10826;52.536;13.432;2022-09-24T12:03:11;100814.00;;;25.40
21336;BMP180;10826;52.536;13.432;2022-09-24T12:06:09;100818.00;;;25.40
21336;BMP180;10826;52.536;13.432;2022-09-24T12:11:47;100803.00;;;25.40
21336;BMP180;10826;52.536;13.432;2022-09-24T12:14:41;100808.00;;;25.40
21336;BMP180;10826;52.536;13.432;2022-09-24T12:17:17;100807.00;;;25.40
21336;BMP180;10826;52.536;13.432;2022-09-24T12:20:02;100816.00;;;25.40
21336;BMP180;10826;52.536;13.432;2022-09-24T12:22:30;100820.00;;;25.30
21336;BMP180;10826;52.536;13.432;2022-09-24T12:24:59;100825.00;;;25.40
21336;BMP180;10826;52.536;13.432;2022-09-24T12:27:38;100801.00;;;25.40
21336;BMP180;10826;52.536;13.432;2022-09-24T12:33:16;100822.00;;;25.40
21336;BMP180;10826;52.536;13.432;2022-09-24T12:39:01;100795.00;;;25.50
21336;BMP180;10826;52.536;13.432;2022-09-24T12:41:37;100802.00;;;25.40
21336;BMP180;10826;52.536;13.432;2022-09-24T12:44:13;100805.00;;;25.40
21336;BMP180;10826;52.536;13.432;2022-09-24T12:46:53;100797.00;;;25.40
21336;BMP180;10826;52.536;13.432;2022-09-24T12:51:55;100813.00;;;25.30
21336;BMP180;10826;52.536;13.432;2022-09-24T12:54:33;100806.00;;;25.40
21336;BMP180;10826;52.536;13.432;2022-09-24T12:57:20;100802.00;;;25.50
21336;BMP180;10826;52.536;13.432;2022-09-24T12:59:56;100803.00;;;25.50
21336;BMP180;10826;52.536;13.432;2022-09-24T13:02:29;100813.00;;;25.50
21336;BMP180;10826;52.536;13.432;2022-09-24T13:08:21;100798.00;;;25.70
21336;BMP180;10826;52.536;13.432;2022-09-24T13:11:24;100781.00;;;25.80
21336;BMP180;10826;52.536;13.432;2022-09-24T13:14:19;100806.00;;;25.80
21336;BMP180;10826;52.536;13.432;2022-09-24T13:16:50;100783.00;;;25.80
21336;BMP180;10826;52.536;13.432;2022-09-24T13:19:47;100801.00;;;25.90
21336;BMP180;10826;52.536;13.432;2022-09-24T13:22:32;100798.00;;;25.90
21336;BMP180;10826;52.536;13.432;2022-09-24T13:27:41;100800.00;;;25.80
21336;BMP180;10826;52.536;13.432;2022-09-24T13:30:17;100815.00;;;25.70
21336;BMP180;10826;52.536;13.432;2022-09-24T13:35:38;100797.00;;;25.60
21336;BMP180;10826;52.536;13.432;2022-09-24T13:38:30;100789.00;;;25.60
21336;BMP180;10826;52.536;13.432;2022-09-24T13:41:31;100793.00;;;25.50
21336;BMP180;10826;52.536;13.432;2022-09-24T13:44:12;100798.00;;;25.50
21336;BMP180;10826;52.536;13.432;2022-09-24T13:46:44;100796.00;;;25.50
21336;BMP180;10826;52.536;13.432;2022-09-24T13:49:17;100789.00;;;25.40
21336;BMP180;10826;52.536;13.432;2022-09-24T13:55:01;100790.00;;;25.40
21336;BMP180;10826;52.536;13.432;2022-09-24T13:57:47;100775.00;;;25.30
21336;BMP180;10826;52.536;13.432;2022-09-24T14:00:27;100785.00;;;25.30
21336;BMP180;10826;52.536;13.432;2022-09-24T14:03:52;100789.00;;;25.30
21336;BMP180;10826;52.536;13.432;2022-09-24T14:06:49;100791.00;;;25.30
21336;BMP180;10826;52.536;13.432;2022-09-24T14:09:34;100775.00;;;25.20
21336;BMP180;10826;52.536;13.432;2022-09-24T14:12:30;100774.00;;;25.20
21336;BMP180;10826;52.536;13.432;2022-09-24T14:14:59;100790.00;;;25.10
21336;BMP180;10826;52.536;13.432;2022-09-24T14:17:29;100761.00;;;25.10
21336;BMP180;10826;52.536;13.432;2022-09-24T14:20:00;100783.00;;;25.10
21336;BMP180;10826;52.536;13.432;2022-09-24T14:22:35;100787.00;;;25.10
21336;BMP180;10826;52.536;13.432;2022-09-24T14:25:37;100782.00;;;25.10
21336;BMP180;10826;52.536;13.432;2022-09-24T14:28:05;100796.00;;;25.00
21336;BMP180;10826;52.536;13.432;2022-09-24T14:30:33;100786.00;;;25.00
21336;BMP180;10826;52.536;13.432;2022-09-24T14:33:06;100775.00;;;25.00
21336;BMP180;10826;52.536;13.432;2022-09-24T14:35:38;100770.00;;;25.00
21336;BMP180;10826;52.536;13.432;2022-09-24T14:38:31;100788.00;;;25.00
21336;BMP180;10826;52.536;13.432;2022-09-24T14:41:33;100785.00;;;25.00
21336;BMP180;10826;52.536;13.432;2022-09-24T14:44:29;100785.00;;;25.00
21336;BMP180;10826;52.536;13.432;2022-09-24T14:46:58;100762.00;;;24.80
21336;BMP180;10826;52.536;13.432;2022-09-24T14:49:43;100769.00;;;24.90
21336;BMP180;10826;52.536;13.432;2022-09-24T14:55:20;100781.00;;;24.70
21336;BMP180;10826;52.536;13.432;2022-09-24T14:57:50;100789.00;;;24.60
21336;BMP180;10826;52.536;13.432;2022-09-24T15:00:29;100791.00;;;24.70
21336;BMP180;10826;52.536;13.432;2022-09-24T15:03:12;100797.00;;;24.60
21336;BMP180;10826;52.536;13.432;2022-09-24T15:05:40;100791.00;;;24.50
21336;BMP180;10826;52.536;13.432;2022-09-24T15:08:26;100780.00;;;24.40
21336;BMP180;10826;52.536;13.432;2022-09-24T15:11:04;100790.00;;;24.40
21336;BMP180;10826;52.536;13.432;2022-09-24T15:13:34;100720.00;;;24.30
21336;BMP180;10826;52.536;13.432;2022-09-24T15:16:25;100790.00;;;24.20
21336;BMP180;10826;52.536;13.432;2022-09-24T15:19:26;100760.00;;;24.10
21336;BMP180;10826;52.536;13.432;2022-09-24T15:21:59;100790.00;;;24.00
21336;BMP180;10826;52.536;13.432;2022-09-24T15:24:27;100763.00;;;23.90
21336;BMP180;10826;52.536;13.432;2022-09-24T15:29:52;100782.00;;;23.80
21336;BMP180;10826;52.536;13.432;2022-09-24T15:32:27;100764.00;;;23.70
21336;BMP180;10826;52.536;13.432;2022-09-24T15:34:54;100796.00;;;23.60
21336;BMP180;10826;52.536;13.432;2022-09-24T15:37:27;100780.00;;;23.60
21336;BMP180;10826;52.536;13.432;2022-09-24T15:39:58;100747.00;;;23.60
21336;BMP180;10826;52.536;13.432;2022-09-24T15:42:27;100768.00;;;23.50
21336;BMP180;10826;52.536;13.432;2022-09-24T15:44:53;100769.00;;;23.40
21336;BMP180;10826;52.536;13.432;2022-09-24T15:47:19;100758.00;;;23.40
21336;BMP180;10826;52.536;13.432;2022-09-24T15:49:46;100755.00;;;23.30
21336;BMP180;10826;52.536;13.432;2022-09-24T15:54:57;100770.00;;;23.30
21336;BMP180;10826;52.536;13.432;2022-09-24T15:57:25;100780.00;;;23.20
21336;BMP180;10826;52.536;13.432;2022-09-24T15:59:52;100773.00;;;23.10
21336;BMP180;10826;52.536;13.432;2022-09-24T16:02:31;100770.00;;;23.20